createdAt,value
2019-02-24T00:00:01.796Z,100.00
2019-02-24T00:05:05.826Z,100.00
2019-02-24T00:10:11.294Z,100.00
2019-02-24T00:15:15.407Z,100.00
2019-02-24T00:20:19.482Z,100.00
2019-02-24T00:25:23.609Z,100.00
2019-02-24T00:30:27.798Z,100.00
2019-02-24T00:35:31.973Z,100.00
2019-02-24T00:40:35.893Z,100.00
2019-02-24T00:45:39.872Z,100.00
2019-02-24T00:50:43.880Z,100.00
2019-02-24T00:55:47.951Z,100.00
2019-02-24T01:00:51.875Z,100.00
2019-02-24T01:05:55.869Z,100.00
2019-02-24T01:10:59.798Z,100.00
2019-02-24T01:16:03.814Z,100.00
2019-02-24T01:21:07.982Z,100.00
2019-02-24T01:26:11.987Z,100.00
2019-02-24T01:31:17.446Z,100.00
2019-02-24T01:36:21.527Z,100.00
2019-02-24T01:41:25.699Z,100.00
2019-02-24T01:46:29.775Z,100.00
2019-02-24T01:51:33.999Z,100.00
2019-02-24T01:56:38.117Z,100.00
2019-02-24T02:01:42.255Z,100.00
2019-02-24T02:06:46.276Z,100.00
2019-02-24T02:11:50.301Z,100.00
2019-02-24T02:16:54.243Z,100.00
2019-02-24T02:21:58.368Z,100.00
2019-02-24T02:27:02.488Z,100.00
2019-02-24T02:32:06.784Z,100.00
2019-02-24T02:37:10.845Z,100.00
2019-02-24T02:42:14.879Z,100.00
2019-02-24T02:47:18.900Z,100.00
2019-02-24T02:52:23.017Z,100.00
2019-02-24T02:57:27.044Z,100.00
2019-02-24T03:02:31.084Z,100.00
2019-02-24T03:07:35.137Z,100.00
2019-02-24T03:12:39.241Z,100.00
2019-02-24T03:17:43.364Z,100.00
2019-02-24T03:22:47.280Z,100.00
2019-02-24T03:27:51.458Z,100.00
2019-02-24T03:32:55.696Z,100.00
2019-02-24T03:37:59.874Z,100.00
2019-02-24T03:43:03.803Z,100.00
2019-02-24T03:48:08.024Z,100.00
2019-02-24T03:53:12.054Z,100.00
2019-02-24T03:58:16.086Z,100.00
2019-02-24T04:03:20.299Z,100.00
2019-02-24T04:08:24.330Z,100.00
2019-02-24T04:13:28.464Z,100.00
2019-02-24T04:18:32.484Z,100.00
2019-02-24T04:23:38.353Z,100.00
2019-02-24T04:28:42.368Z,100.00
2019-02-24T04:33:46.714Z,100.00
2019-02-24T04:38:50.776Z,100.00
2019-02-24T04:43:54.969Z,100.00
2019-02-24T04:48:58.886Z,100.00
2019-02-24T04:54:02.882Z,100.00
2019-02-24T04:59:08.684Z,100.00
2019-02-24T05:04:13.015Z,100.00
2019-02-24T05:09:17.219Z,100.00
2019-02-24T05:14:21.275Z,100.00
2019-02-24T05:19:25.261Z,100.00
2019-02-24T05:24:29.371Z,100.00
2019-02-24T05:29:33.298Z,100.00
2019-02-24T05:34:37.884Z,100.00
2019-02-24T05:39:42.003Z,100.00
2019-02-24T05:44:46.181Z,100.00
2019-02-24T05:49:50.263Z,100.00
2019-02-24T05:54:54.160Z,100.00
2019-02-24T05:59:58.103Z,100.00
2019-02-24T06:05:02.141Z,100.00
2019-02-24T06:10:06.539Z,100.00
2019-02-24T06:15:10.806Z,100.00
2019-02-24T06:20:14.719Z,100.00
2019-02-24T06:25:18.746Z,100.00
2019-02-24T06:30:22.744Z,100.00
2019-02-24T06:35:27.008Z,100.00
2019-02-24T06:40:31.029Z,100.00
2019-02-24T06:45:35.367Z,100.00
2019-02-24T06:50:39.384Z,100.00
2019-02-24T06:55:43.509Z,100.00
2019-02-24T07:00:47.534Z,100.00
2019-02-24T07:05:51.665Z,100.00
2019-02-24T07:10:55.894Z,100.00
2019-02-24T07:15:59.984Z,100.00
2019-02-24T07:21:03.989Z,100.00
2019-02-24T07:26:08.177Z,100.00
2019-02-24T07:31:12.575Z,100.00
2019-02-24T07:36:16.749Z,100.00
2019-02-24T07:41:20.764Z,100.00
2019-02-24T07:46:24.761Z,100.00
2019-02-24T07:51:28.688Z,100.00
2019-02-24T07:56:32.781Z,100.00
2019-02-24T08:01:36.773Z,100.00
2019-02-24T08:06:40.964Z,100.00
2019-02-24T08:11:45.084Z,100.00
2019-02-24T08:16:49.309Z,100.00
2019-02-24T08:21:53.484Z,100.00
2019-02-24T08:26:57.608Z,100.00
2019-02-24T08:32:01.874Z,100.00
2019-02-24T08:37:06.218Z,100.00
2019-02-24T08:42:10.459Z,100.00
2019-02-24T08:47:14.539Z,100.00
2019-02-24T08:52:18.559Z,100.00
2019-02-24T08:57:22.594Z,100.00
2019-02-24T09:02:29.697Z,100.00
2019-02-24T09:07:33.810Z,100.00
2019-02-24T09:12:37.836Z,100.00
2019-02-24T09:17:41.978Z,100.00
2019-02-24T09:22:46.041Z,100.00
2019-02-24T09:27:50.234Z,100.00
2019-02-24T09:32:54.343Z,100.00
2019-02-24T09:37:58.472Z,100.00
2019-02-24T09:43:02.442Z,100.00
2019-02-24T09:48:06.623Z,99.78
2019-02-24T09:53:12.186Z,95.21
2019-02-24T09:58:16.204Z,95.21
2019-02-24T10:03:20.353Z,95.63
2019-02-24T10:08:24.604Z,91.24
2019-02-24T10:13:28.695Z,89.03
2019-02-24T10:18:32.881Z,87.18
2019-02-24T10:23:39.450Z,88.63
2019-02-24T10:28:44.669Z,86.59
2019-02-24T10:33:48.852Z,85.53
2019-02-24T10:38:53.058Z,83.80
2019-02-24T10:43:57.217Z,85.75
2019-02-24T10:49:03.660Z,85.88
2019-02-24T10:54:07.248Z,85.35
2019-02-24T10:59:11.374Z,84.22
2019-02-24T11:04:15.469Z,80.69
2019-02-24T11:09:19.685Z,83.66
2019-02-24T11:14:23.910Z,82.18
2019-02-24T11:19:28.062Z,83.34
2019-02-24T11:24:32.147Z,83.18
2019-02-24T11:29:36.140Z,82.60
2019-02-24T11:34:40.177Z,84.20
2019-02-24T11:39:44.670Z,83.87
2019-02-24T11:44:48.837Z,85.75
2019-02-24T11:49:52.718Z,84.87
2019-02-24T11:54:56.722Z,82.67
2019-02-24T12:00:00.807Z,84.23
2019-02-24T12:05:05.265Z,84.64
2019-02-24T12:10:09.504Z,84.90
2019-02-24T12:15:13.497Z,85.45
2019-02-24T12:20:17.529Z,83.92
2019-02-24T12:25:21.663Z,84.29
2019-02-24T12:30:26.955Z,84.56
2019-02-24T12:35:31.243Z,84.14
2019-02-24T12:40:35.373Z,84.39
2019-02-24T12:45:39.389Z,82.58
2019-02-24T12:50:43.428Z,83.28
2019-02-24T12:55:47.465Z,83.82
2019-02-24T13:00:51.453Z,83.09
2019-02-24T13:05:55.388Z,81.82
2019-02-24T13:10:59.310Z,82.67
2019-02-24T13:16:03.721Z,82.44
2019-02-24T13:21:08.682Z,80.75
2019-02-24T13:26:12.718Z,81.13
2019-02-24T13:31:16.902Z,82.52
2019-02-24T13:36:21.237Z,84.24
2019-02-24T13:41:25.520Z,83.26
2019-02-24T13:46:29.647Z,85.42
2019-02-24T13:51:33.559Z,83.42
2019-02-24T13:56:37.853Z,85.31
2019-02-24T14:01:42.092Z,85.33
2019-02-24T14:06:46.214Z,84.39
2019-02-24T14:11:50.439Z,85.48
2019-02-24T14:16:54.453Z,85.54
2019-02-24T14:21:58.637Z,83.49
2019-02-24T14:27:02.768Z,83.44
2019-02-24T14:32:06.899Z,82.89
2019-02-24T14:37:11.125Z,84.37
2019-02-24T14:42:15.152Z,84.44
2019-02-24T14:47:19.222Z,84.38
2019-02-24T14:52:23.561Z,80.58
2019-02-24T14:57:27.786Z,80.07
2019-02-24T15:02:31.967Z,80.33
2019-02-24T15:07:35.993Z,81.91
2019-02-24T15:12:40.043Z,82.85
2019-02-24T15:17:44.302Z,82.09
2019-02-24T15:22:48.758Z,83.90
2019-02-24T15:27:52.881Z,85.41
2019-02-24T15:32:58.583Z,85.11
2019-02-24T15:38:05.465Z,86.62
2019-02-24T15:43:09.494Z,85.25
2019-02-24T15:48:14.913Z,85.83
2019-02-24T15:53:19.245Z,85.81
2019-02-24T15:58:23.317Z,86.48
2019-02-24T16:03:27.399Z,87.34
2019-02-24T16:08:31.573Z,88.78
2019-02-24T16:13:35.903Z,89.31
2019-02-24T16:18:39.982Z,89.38
2019-02-24T16:23:44.258Z,90.46
2019-02-24T16:28:50.796Z,90.44
2019-02-24T16:33:55.038Z,90.31
2019-02-24T16:38:59.110Z,90.85
2019-02-24T16:44:03.067Z,90.29
2019-02-24T16:49:07.044Z,90.58
2019-02-24T16:54:11.074Z,90.74
2019-02-24T16:59:15.174Z,91.10
2019-02-24T17:04:19.384Z,91.53
2019-02-24T17:09:23.513Z,92.33
2019-02-24T17:14:27.695Z,92.71
2019-02-24T17:19:31.775Z,93.08
2019-02-24T17:24:35.994Z,92.60
2019-02-24T17:29:40.080Z,92.47
2019-02-24T17:34:44.030Z,93.13
2019-02-24T17:39:48.227Z,93.03
2019-02-24T17:44:52.530Z,93.67
2019-02-24T17:49:56.689Z,93.74
2019-02-24T17:55:00.694Z,95.16
2019-02-24T18:00:07.807Z,95.48
2019-02-24T18:05:11.878Z,96.27
2019-02-24T18:10:16.147Z,96.48
2019-02-24T18:15:20.359Z,96.22
2019-02-24T18:20:24.659Z,96.67
2019-02-24T18:25:28.805Z,97.39
2019-02-24T18:30:32.967Z,98.25
2019-02-24T18:35:37.083Z,98.12
2019-02-24T18:40:41.130Z,98.06
2019-02-24T18:45:45.360Z,98.67
2019-02-24T18:50:49.391Z,98.92
2019-02-24T18:55:53.458Z,99.03
2019-02-24T19:00:57.539Z,99.26
2019-02-24T19:06:02.955Z,99.05
2019-02-24T19:11:07.047Z,99.53
2019-02-24T19:16:13.530Z,99.71
2019-02-24T19:21:17.615Z,99.89
2019-02-24T19:26:21.966Z,100.00
2019-02-24T19:31:28.739Z,99.91
2019-02-24T19:36:32.996Z,100.00
2019-02-24T19:41:36.966Z,100.00
2019-02-24T19:46:42.282Z,100.00
2019-02-24T19:51:46.551Z,100.00
2019-02-24T19:56:50.836Z,100.00
2019-02-24T20:01:54.956Z,100.00
2019-02-24T20:06:58.957Z,100.00
2019-02-24T20:12:04.601Z,100.00
2019-02-24T20:17:08.726Z,100.00
2019-02-24T20:22:12.910Z,100.00
2019-02-24T20:27:17.233Z,100.00
2019-02-24T20:32:21.684Z,100.00
2019-02-24T20:37:27.639Z,100.00
2019-02-24T20:42:31.822Z,100.00
2019-02-24T20:47:36.158Z,100.00
2019-02-24T20:52:40.241Z,100.00
2019-02-24T20:57:44.417Z,100.00
2019-02-24T21:02:48.701Z,100.00
2019-02-24T21:07:52.721Z,100.00
2019-02-24T21:12:56.741Z,100.00
2019-02-24T21:18:00.770Z,100.00
2019-02-24T21:23:04.928Z,100.00
2019-02-24T21:28:09.219Z,100.00
2019-02-24T21:33:13.261Z,100.00
2019-02-24T21:38:17.400Z,100.00
2019-02-24T21:43:21.631Z,100.00
2019-02-24T21:48:25.963Z,100.00
2019-02-24T21:53:29.971Z,100.00
2019-02-24T21:58:33.917Z,100.00
2019-02-24T22:03:37.922Z,100.00
2019-02-24T22:08:42.940Z,100.00
2019-02-24T22:13:47.101Z,100.00
2019-02-24T22:18:51.231Z,100.00
2019-02-24T22:23:55.202Z,100.00
2019-02-24T22:28:59.385Z,100.00
2019-02-24T22:34:03.617Z,100.00
2019-02-24T22:39:07.835Z,100.00
2019-02-24T22:44:12.215Z,100.00
2019-02-24T22:49:16.505Z,100.00
2019-02-24T22:54:20.636Z,100.00
2019-02-24T22:59:24.617Z,100.00
2019-02-24T23:04:28.834Z,100.00
2019-02-24T23:09:33.011Z,100.00
2019-02-24T23:14:37.186Z,100.00
2019-02-24T23:19:41.375Z,100.00
2019-02-24T23:24:45.506Z,100.00
2019-02-24T23:29:49.385Z,100.00
2019-02-24T23:34:53.362Z,100.00
2019-02-24T23:39:57.471Z,100.00
2019-02-24T23:45:09.756Z,100.00
2019-02-24T23:50:07.270Z,100.00
2019-02-24T23:55:11.302Z,100.00
